Terminal Aerodrome Forecast
Issued by NWS Mt. Holly, NJ

Current Version | Previous Version | Text Only | Print | Product List | Glossary On
Versions: 1 2 3 4 5 6 7 8 9 10 11 12 13 14 15 16 17 18 19 20 21 22 23 24 25 26 27 28 29 30 31 32 33 34 35 36 37 38 39 40 41 42 43 44
000
FTUS41 KPHI 192300
TAFABE
TAF
KABE 192331Z 2000/2024 14006KT P6SM SCT050
     FM200500 13003KT P6SM OVC025
     FM200800 13002KT 5SM BR OVC015
      TEMPO 2010/2013 3SM BR OVC008
     FM201400 15006KT P6SM BKN020
     FM201600 18009KT P6SM SCT035
      TEMPO 2018/2020 BKN050=

USA.gov is the U.S. government's official web portal to all federal, state and local government web resources and services.